createdAt,value
2022-11-04T00:00:29.873Z,15.75
2022-11-04T00:03:00.235Z,14.93
2022-11-04T00:05:30.133Z,15.88
2022-11-04T00:08:15.023Z,15.18
2022-11-04T00:10:57.391Z,17.88
2022-11-04T00:13:27.198Z,14.65
2022-11-04T00:16:09.550Z,13.65
2022-11-04T00:18:39.440Z,16.85
2022-11-04T00:21:21.775Z,16.63
2022-11-04T00:24:06.688Z,17.20
2022-11-04T00:26:49.090Z,17.40
2022-11-04T00:29:18.891Z,20.42
2022-11-04T00:32:01.223Z,15.35
2022-11-04T00:34:31.043Z,14.93
2022-11-04T00:37:03.099Z,15.73
2022-11-04T00:39:35.556Z,17.08
2022-11-04T00:42:05.422Z,15.75
2022-11-04T00:44:35.261Z,16.27
2022-11-04T00:47:05.096Z,20.35
2022-11-04T00:49:35.009Z,16.23
2022-11-04T00:52:04.845Z,17.00
2022-11-04T00:54:37.279Z,15.15
2022-11-04T00:57:07.204Z,18.00
2022-11-04T00:59:37.031Z,19.77
2022-11-04T01:02:07.082Z,13.80
2022-11-04T01:04:37.079Z,16.98
2022-11-04T01:07:08.288Z,15.30
2022-11-04T01:09:41.076Z,14.00
2022-11-04T01:12:11.228Z,15.32
2022-11-04T01:14:41.208Z,16.75
2022-11-04T01:17:11.067Z,15.90
2022-11-04T01:19:40.878Z,14.70
2022-11-04T01:22:10.721Z,15.50
2022-11-04T01:24:43.132Z,19.05
2022-11-04T01:27:12.971Z,15.52
2022-11-04T01:29:42.784Z,14.85
2022-11-04T01:32:12.671Z,15.40
2022-11-04T01:34:43.671Z,17.92
2022-11-04T01:37:13.756Z,16.25
2022-11-04T01:39:46.990Z,23.30
2022-11-04T01:42:17.909Z,20.10
2022-11-04T01:44:55.181Z,18.92
2022-11-04T01:47:31.221Z,20.45
2022-11-04T01:50:06.986Z,19.17
2022-11-04T01:52:43.658Z,23.02
2022-11-04T01:55:20.664Z,15.32
2022-11-04T01:57:53.281Z,17.70
2022-11-04T02:00:23.314Z,17.65
2022-11-04T02:02:59.427Z,22.77
2022-11-04T02:05:30.346Z,21.55
2022-11-04T02:08:03.728Z,16.13
2022-11-04T02:10:37.581Z,16.88
2022-11-04T02:13:06.272Z,19.97
2022-11-04T02:15:43.970Z,18.77
2022-11-04T02:18:42.030Z,18.63
2022-11-04T02:21:59.268Z,18.33
2022-11-04T02:24:52.975Z,21.27
2022-11-04T02:27:36.318Z,23.08
2022-11-04T02:30:15.370Z,18.10
2022-11-04T02:33:12.005Z,16.55
2022-11-04T02:35:53.442Z,18.13
2022-11-04T02:38:35.630Z,17.13
2022-11-04T02:41:17.087Z,19.65
2022-11-04T02:43:56.096Z,17.15
2022-11-04T02:46:38.075Z,19.63
2022-11-04T02:49:15.975Z,17.73
2022-11-04T02:51:52.274Z,20.77
2022-11-04T02:54:27.397Z,18.10
2022-11-04T02:57:01.554Z,18.63
2022-11-04T02:59:38.269Z,20.42
2022-11-04T03:02:15.435Z,17.27
2022-11-04T03:04:51.722Z,23.90
2022-11-04T03:07:28.848Z,19.90
2022-11-04T03:10:05.737Z,17.88
2022-11-04T03:12:41.011Z,22.08
2022-11-04T03:15:19.831Z,24.77
2022-11-04T03:17:58.687Z,21.63
2022-11-04T03:20:31.697Z,16.10
2022-11-04T03:23:02.838Z,20.33
2022-11-04T03:25:40.764Z,23.33
2022-11-04T03:28:25.827Z,25.70
2022-11-04T03:31:01.406Z,27.20
2022-11-04T03:33:43.598Z,22.33
2022-11-04T03:36:13.595Z,23.65
2022-11-04T03:38:43.547Z,21.05
2022-11-04T03:41:18.734Z,25.65
2022-11-04T03:43:48.559Z,24.80
2022-11-04T03:46:18.716Z,22.70
2022-11-04T03:48:51.598Z,23.95
2022-11-04T03:51:21.497Z,19.60
2022-11-04T03:53:51.554Z,22.80
2022-11-04T03:56:53.826Z,21.55
2022-11-04T03:59:43.668Z,17.23
2022-11-04T04:02:21.919Z,22.15
2022-11-04T04:04:59.929Z,18.48
2022-11-04T04:07:36.240Z,20.80
2022-11-04T04:10:27.148Z,20.05
2022-11-04T04:13:02.025Z,21.15
2022-11-04T04:15:45.045Z,21.05
2022-11-04T04:18:19.396Z,22.35
2022-11-04T04:20:54.986Z,17.00
2022-11-04T04:23:43.107Z,18.60
2022-11-04T04:26:28.007Z,19.25
2022-11-04T04:29:01.721Z,21.00
2022-11-04T04:31:46.362Z,21.23
2022-11-04T04:34:16.285Z,19.23
2022-11-04T04:36:54.507Z,20.63
2022-11-04T04:39:42.360Z,19.65
2022-11-04T04:42:26.323Z,20.17
2022-11-04T04:45:08.275Z,22.02
2022-11-04T04:47:49.256Z,19.77
2022-11-04T04:50:22.350Z,22.27
2022-11-04T04:52:56.742Z,20.75
2022-11-04T04:55:26.560Z,17.67
2022-11-04T04:57:56.408Z,23.23
2022-11-04T05:00:26.821Z,22.00
2022-11-04T05:02:56.653Z,24.20
2022-11-04T05:05:26.456Z,20.83
2022-11-04T05:07:58.911Z,24.02
2022-11-04T05:10:28.782Z,17.20
2022-11-04T05:13:11.141Z,23.08
2022-11-04T05:15:41.133Z,20.48
2022-11-04T05:18:11.554Z,20.10
2022-11-04T05:20:41.677Z,21.40
2022-11-04T05:23:15.200Z,22.48
2022-11-04T05:25:45.308Z,18.70
2022-11-04T05:28:15.316Z,24.17
2022-11-04T05:30:45.848Z,21.35
2022-11-04T05:33:15.833Z,23.40
2022-11-04T05:35:45.878Z,22.67
2022-11-04T05:38:18.517Z,21.77
2022-11-04T05:40:48.537Z,20.20
2022-11-04T05:43:18.541Z,23.48
2022-11-04T05:45:49.281Z,25.20
2022-11-04T05:48:19.545Z,18.75
2022-11-04T05:50:49.685Z,22.00
2022-11-04T05:53:22.435Z,18.75
2022-11-04T05:55:52.331Z,20.30
2022-11-04T05:58:22.160Z,19.13
2022-11-04T06:00:52.004Z,19.83
2022-11-04T06:03:21.852Z,23.00
2022-11-04T06:05:51.706Z,22.40
2022-11-04T06:08:24.115Z,20.70
2022-11-04T06:10:53.928Z,19.42
2022-11-04T06:13:23.775Z,20.13
2022-11-04T06:15:53.587Z,19.25
2022-11-04T06:18:23.416Z,21.50
2022-11-04T06:20:53.258Z,24.33
2022-11-04T06:23:25.644Z,25.58
2022-11-04T06:25:56.115Z,20.48
2022-11-04T06:28:25.935Z,21.08
2022-11-04T06:30:55.751Z,19.60
2022-11-04T06:33:25.567Z,17.73
2022-11-04T06:35:55.890Z,20.10
2022-11-04T06:38:28.643Z,19.80
2022-11-04T06:40:58.541Z,21.73
2022-11-04T06:43:28.494Z,18.20
2022-11-04T06:45:58.894Z,25.08
2022-11-04T06:48:30.584Z,24.20
2022-11-04T06:51:01.171Z,21.38
2022-11-04T06:53:33.593Z,26.90
2022-11-04T06:56:07.021Z,23.05
2022-11-04T06:58:36.843Z,25.63
2022-11-04T07:01:13.530Z,21.52
2022-11-04T07:03:45.868Z,21.13
2022-11-04T07:06:15.694Z,26.90
2022-11-04T07:08:48.320Z,25.38
2022-11-04T07:11:19.116Z,23.38
2022-11-04T07:13:48.967Z,22.63
2022-11-04T07:16:19.775Z,31.08
2022-11-04T07:18:51.834Z,25.23
2022-11-04T07:21:21.702Z,23.55
2022-11-04T07:23:54.142Z,19.50
2022-11-04T07:26:24.346Z,25.75
2022-11-04T07:28:54.587Z,20.27
2022-11-04T07:31:24.935Z,20.58
2022-11-04T07:33:54.758Z,23.92
2022-11-04T07:36:24.730Z,26.45
2022-11-04T07:38:57.759Z,27.73
2022-11-04T07:41:27.655Z,24.88
2022-11-04T07:43:58.965Z,25.02
2022-11-04T07:46:28.881Z,24.02
2022-11-04T07:49:00.816Z,24.95
2022-11-04T07:51:32.303Z,31.55
2022-11-04T07:54:04.724Z,25.02
2022-11-04T07:56:34.564Z,29.77
2022-11-04T07:59:04.381Z,25.83
2022-11-04T08:01:34.260Z,20.30
2022-11-04T08:04:05.141Z,30.08
2022-11-04T08:06:34.991Z,22.13
2022-11-04T08:09:07.527Z,31.55
2022-11-04T08:11:37.416Z,25.33
2022-11-04T08:14:07.711Z,22.50
2022-11-04T08:16:37.646Z,29.67
2022-11-04T08:19:07.499Z,27.63
2022-11-04T08:21:37.815Z,24.42
2022-11-04T08:24:10.505Z,29.88
2022-11-04T08:26:40.884Z,28.02
2022-11-04T08:29:11.530Z,25.65
2022-11-04T08:31:42.129Z,26.58
2022-11-04T08:34:12.423Z,25.52
2022-11-04T08:36:43.519Z,33.15
2022-11-04T08:39:16.115Z,29.10
2022-11-04T08:41:46.228Z,29.65
2022-11-04T08:44:16.539Z,20.30
2022-11-04T08:46:48.991Z,25.10
2022-11-04T08:49:21.385Z,23.00
2022-11-04T08:51:56.851Z,25.10
2022-11-04T08:54:30.745Z,24.10
2022-11-04T08:57:01.308Z,23.93
2022-11-04T08:59:31.567Z,19.70
2022-11-04T09:02:01.497Z,19.52
2022-11-04T09:04:31.413Z,23.27
2022-11-04T09:07:06.738Z,26.38
2022-11-04T09:09:40.518Z,24.92
2022-11-04T09:12:13.026Z,20.42
2022-11-04T09:14:42.840Z,25.25
2022-11-04T09:17:12.702Z,35.78
2022-11-04T09:19:42.510Z,28.25
2022-11-04T09:22:12.375Z,19.95
2022-11-04T09:24:44.773Z,17.67
2022-11-04T09:27:15.222Z,25.80
2022-11-04T09:29:45.084Z,18.70
2022-11-04T09:32:14.957Z,23.83
2022-11-04T09:34:44.784Z,21.33
2022-11-04T09:37:15.882Z,24.90
2022-11-04T09:39:52.799Z,21.88
2022-11-04T09:42:52.547Z,26.98
2022-11-04T09:45:31.272Z,41.97
2022-11-04T09:48:06.495Z,28.70
2022-11-04T09:50:47.195Z,18.83
2022-11-04T09:53:22.967Z,21.83
2022-11-04T09:56:02.162Z,24.38
2022-11-04T09:58:37.008Z,21.38
2022-11-04T10:01:21.100Z,19.52
2022-11-04T10:04:11.358Z,19.20
2022-11-04T10:06:58.151Z,17.95
2022-11-04T10:09:42.967Z,17.88
2022-11-04T10:12:42.841Z,14.20
2022-11-04T10:15:40.349Z,14.10
2022-11-04T10:18:27.864Z,13.13
2022-11-04T10:21:08.000Z,16.50
2022-11-04T10:23:46.942Z,15.82
2022-11-04T10:26:21.439Z,11.85
2022-11-04T10:29:01.284Z,13.18
2022-11-04T10:31:31.659Z,12.77
2022-11-04T10:34:08.946Z,13.00
2022-11-04T10:36:39.885Z,12.52
2022-11-04T10:39:21.808Z,17.05
2022-11-04T10:41:52.044Z,15.15
2022-11-04T10:44:29.606Z,14.98
2022-11-04T10:47:16.510Z,12.68
2022-11-04T10:50:27.652Z,13.02
2022-11-04T10:52:58.563Z,20.25
2022-11-04T10:55:38.286Z,15.38
2022-11-04T10:58:20.136Z,11.80
2022-11-04T11:00:53.543Z,10.77
2022-11-04T11:03:34.279Z,10.95
2022-11-04T11:06:24.490Z,13.45
2022-11-04T11:08:56.050Z,11.57
2022-11-04T11:11:45.510Z,10.55
2022-11-04T11:14:33.758Z,12.48
2022-11-04T11:17:26.249Z,13.30
2022-11-04T11:20:05.137Z,12.50
2022-11-04T11:22:39.994Z,10.98
2022-11-04T11:25:30.242Z,11.30
2022-11-04T11:28:02.732Z,11.93
2022-11-04T11:30:37.009Z,12.48
2022-11-04T11:33:19.418Z,13.18
2022-11-04T11:35:54.827Z,11.85
2022-11-04T11:38:27.870Z,13.55
2022-11-04T11:41:26.022Z,15.25
2022-11-04T11:43:58.773Z,15.75
2022-11-04T11:46:32.242Z,11.10
2022-11-04T11:49:07.470Z,13.07
2022-11-04T11:51:43.612Z,13.23
2022-11-04T11:54:22.915Z,9.70
2022-11-04T11:57:13.077Z,11.95
2022-11-04T12:02:50.600Z,13.88
2022-11-04T12:11:47.844Z,11.73
2022-11-04T12:14:30.356Z,17.13
2022-11-04T12:17:07.687Z,17.77
2022-11-04T12:20:08.912Z,14.02
2022-11-04T12:22:56.468Z,15.07
2022-11-04T12:25:32.928Z,16.80
2022-11-04T12:28:11.968Z,15.75
2022-11-04T12:30:52.338Z,14.07
2022-11-04T12:33:34.875Z,14.40
2022-11-04T12:36:24.713Z,16.48
2022-11-04T12:39:22.695Z,13.38
2022-11-04T12:42:20.484Z,15.77
2022-11-04T12:45:06.165Z,14.77
2022-11-04T12:47:40.184Z,13.07
2022-11-04T12:50:38.833Z,15.00
2022-11-04T12:53:58.520Z,16.88
2022-11-04T12:56:40.914Z,15.00
2022-11-04T12:59:40.591Z,13.32
2022-11-04T13:02:21.763Z,17.08
2022-11-04T13:05:03.284Z,20.10
2022-11-04T13:07:37.907Z,13.80
2022-11-04T13:10:21.662Z,16.35
2022-11-04T13:13:01.079Z,18.40
2022-11-04T13:15:33.986Z,17.52
2022-11-04T13:18:08.894Z,14.98
2022-11-04T13:20:45.741Z,17.90
2022-11-04T13:23:23.424Z,14.30
2022-11-04T13:25:54.431Z,14.70
2022-11-04T13:28:27.204Z,19.08
2022-11-04T13:31:07.074Z,16.25
2022-11-04T13:33:47.248Z,18.55
2022-11-04T13:36:35.365Z,18.33
2022-11-04T13:39:12.036Z,16.17
2022-11-04T13:42:29.411Z,18.50
2022-11-04T13:45:12.068Z,16.00
2022-11-04T13:47:51.288Z,15.93
2022-11-04T13:50:35.593Z,17.50
2022-11-04T13:53:09.473Z,16.05
2022-11-04T13:55:51.416Z,16.88
2022-11-04T13:58:28.038Z,15.82
2022-11-04T14:01:33.045Z,16.95
2022-11-04T14:04:22.588Z,17.02
2022-11-04T14:06:58.259Z,16.00
2022-11-04T14:09:57.330Z,60.83
2022-11-04T14:12:35.521Z,33.40
2022-11-04T14:15:19.257Z,18.20
2022-11-04T14:18:31.823Z,18.92
2022-11-04T14:21:09.380Z,20.73
2022-11-04T14:23:41.751Z,20.65
2022-11-04T14:26:14.913Z,18.83
2022-11-04T14:28:47.751Z,21.20
2022-11-04T14:31:37.859Z,21.80
2022-11-04T14:34:11.090Z,22.73
2022-11-04T14:36:42.669Z,18.67
2022-11-04T14:39:27.275Z,21.52
2022-11-04T14:42:01.801Z,22.38
2022-11-04T14:44:49.312Z,20.85
2022-11-04T14:47:22.904Z,18.20
2022-11-04T14:50:05.596Z,16.92
2022-11-04T14:52:40.714Z,18.80
2022-11-04T14:55:18.312Z,18.80
2022-11-04T14:57:50.429Z,19.75
2022-11-04T15:00:39.894Z,20.75
2022-11-04T15:04:08.804Z,17.88
2022-11-04T15:06:14.621Z,18.33
2022-11-04T15:08:48.197Z,21.15
2022-11-04T15:11:41.729Z,20.45
2022-11-04T15:14:24.263Z,20.05
2022-11-04T15:16:57.230Z,21.30
2022-11-04T15:19:33.394Z,24.20
2022-11-04T15:22:08.224Z,21.42
2022-11-04T15:24:38.794Z,24.20
2022-11-04T15:27:10.217Z,26.95
2022-11-04T15:29:40.122Z,57.75
2022-11-04T15:32:10.324Z,48.22
2022-11-04T15:34:40.256Z,85.43
2022-11-04T15:37:17.266Z,31.92
2022-11-04T15:39:50.626Z,44.38
2022-11-04T15:42:40.488Z,43.58
2022-11-04T15:45:32.316Z,29.42
2022-11-04T15:48:31.555Z,22.25
2022-11-04T15:51:15.148Z,22.73
2022-11-04T15:53:57.395Z,21.15
2022-11-04T15:56:30.777Z,21.58
2022-11-04T15:59:02.862Z,22.73
2022-11-04T16:01:32.891Z,22.52
2022-11-04T16:04:04.693Z,22.08
2022-11-04T16:06:40.795Z,21.20
2022-11-04T16:09:25.104Z,21.77
2022-11-04T16:12:12.398Z,22.08
2022-11-04T16:14:50.114Z,29.95
2022-11-04T16:17:20.450Z,21.60
2022-11-04T16:19:52.194Z,29.00
2022-11-04T16:22:27.551Z,36.60
2022-11-04T16:25:02.741Z,34.33
2022-11-04T16:27:35.100Z,29.13
2022-11-04T16:30:12.342Z,27.33
2022-11-04T16:32:48.002Z,24.42
2022-11-04T16:35:22.227Z,37.50
2022-11-04T16:37:52.503Z,31.17
2022-11-04T16:40:26.937Z,58.05
2022-11-04T16:42:56.951Z,54.63
2022-11-04T16:45:30.715Z,83.82
2022-11-04T16:48:00.674Z,75.23
2022-11-04T16:50:32.085Z,63.40
2022-11-04T16:53:02.141Z,33.30
2022-11-04T16:55:35.421Z,45.05
2022-11-04T16:58:07.383Z,34.85
2022-11-04T17:00:37.224Z,36.17
2022-11-04T17:03:21.900Z,32.70
2022-11-04T17:05:53.902Z,30.75
2022-11-04T17:08:23.727Z,59.47
2022-11-04T17:10:56.162Z,26.13
2022-11-04T17:13:25.983Z,30.45
2022-11-04T17:15:56.133Z,28.88
2022-11-04T17:18:26.591Z,23.10
2022-11-04T17:20:58.265Z,22.38
2022-11-04T17:23:28.322Z,27.10
2022-11-04T17:26:00.915Z,44.30
2022-11-04T17:28:31.630Z,26.98
2022-11-04T17:31:01.827Z,29.60
2022-11-04T17:33:32.274Z,32.10
2022-11-04T17:36:07.424Z,34.35
2022-11-04T17:38:37.708Z,31.88
2022-11-04T17:41:22.609Z,28.98
2022-11-04T17:44:05.154Z,45.30
2022-11-04T17:46:38.103Z,28.85
2022-11-04T17:49:12.815Z,29.75
2022-11-04T17:51:43.877Z,25.23
2022-11-04T17:54:14.250Z,26.15
2022-11-04T17:56:46.770Z,32.53
2022-11-04T17:59:18.182Z,32.20
2022-11-04T18:01:48.811Z,27.38
2022-11-04T18:04:22.268Z,24.02
2022-11-04T18:06:58.436Z,25.38
2022-11-04T18:09:32.737Z,28.17
2022-11-04T18:12:18.058Z,27.85
2022-11-04T18:14:47.974Z,33.38
2022-11-04T18:17:17.804Z,26.95
2022-11-04T18:19:47.693Z,34.72
2022-11-04T18:22:17.522Z,24.70
2022-11-04T18:24:47.932Z,28.75
2022-11-04T18:27:20.370Z,24.98
2022-11-04T18:29:50.187Z,28.92
2022-11-04T18:32:20.053Z,29.05
2022-11-04T18:34:52.018Z,28.77
2022-11-04T18:37:23.204Z,25.27
2022-11-04T18:39:53.022Z,25.10
2022-11-04T18:42:25.395Z,62.47
2022-11-04T18:44:55.257Z,26.48
2022-11-04T18:47:26.765Z,27.45
2022-11-04T18:49:56.815Z,25.38
2022-11-04T18:52:26.671Z,29.65
2022-11-04T18:54:56.504Z,32.35
2022-11-04T18:57:28.928Z,37.08
2022-11-04T18:59:58.911Z,27.35
2022-11-04T19:02:28.914Z,26.88
2022-11-04T19:04:59.087Z,27.92
2022-11-04T19:07:28.903Z,27.95
2022-11-04T19:09:58.780Z,24.48
2022-11-04T19:12:43.721Z,24.88
2022-11-04T19:15:14.087Z,25.95
2022-11-04T19:17:44.004Z,24.40
2022-11-04T19:20:15.039Z,25.25
2022-11-04T19:22:44.923Z,27.63
2022-11-04T19:25:14.791Z,27.55
2022-11-04T19:28:05.185Z,26.92
2022-11-04T19:30:38.716Z,27.08
2022-11-04T19:33:09.090Z,28.85
2022-11-04T19:35:38.962Z,26.70
2022-11-04T19:38:09.337Z,25.75
2022-11-04T19:40:39.312Z,24.77
2022-11-04T19:43:09.466Z,24.33
2022-11-04T19:45:42.493Z,24.15
2022-11-04T19:48:13.038Z,27.15
2022-11-04T19:50:45.491Z,25.00
2022-11-04T19:53:16.407Z,25.83
2022-11-04T19:55:52.911Z,25.60
2022-11-04T19:58:25.441Z,23.35
2022-11-04T20:00:55.313Z,26.15
2022-11-04T20:03:25.251Z,22.02
2022-11-04T20:05:55.075Z,24.50
2022-11-04T20:08:24.920Z,26.00
2022-11-04T20:10:54.781Z,21.58
2022-11-04T20:13:39.695Z,25.33
2022-11-04T20:16:18.186Z,26.80
2022-11-04T20:18:50.777Z,24.70
2022-11-04T20:21:23.043Z,23.27
2022-11-04T20:23:58.289Z,27.55
2022-11-04T20:26:29.747Z,24.10
2022-11-04T20:29:02.546Z,25.55
2022-11-04T20:31:35.486Z,25.40
2022-11-04T20:34:07.973Z,27.83
2022-11-04T20:36:39.192Z,24.10
2022-11-04T20:39:13.230Z,27.35
2022-11-04T20:41:43.441Z,26.83
2022-11-04T20:44:17.714Z,22.05
2022-11-04T20:46:48.106Z,24.45
2022-11-04T20:49:17.952Z,25.10
2022-11-04T20:51:54.696Z,21.45
2022-11-04T20:54:25.300Z,23.90
2022-11-04T20:56:55.202Z,21.55
2022-11-04T20:59:27.713Z,21.42
2022-11-04T21:01:57.657Z,27.15
2022-11-04T21:04:30.675Z,24.95
2022-11-04T21:07:04.916Z,25.00
2022-11-04T21:09:34.751Z,32.67
2022-11-04T21:12:04.610Z,49.50
2022-11-04T21:14:37.291Z,32.60
2022-11-04T21:17:08.563Z,32.22
2022-11-04T21:19:38.426Z,30.40
2022-11-04T21:22:08.255Z,29.48
2022-11-04T21:24:39.351Z,25.48
2022-11-04T21:27:09.492Z,25.45
2022-11-04T21:29:41.933Z,36.60
2022-11-04T21:32:11.810Z,27.08
2022-11-04T21:34:41.799Z,24.95
2022-11-04T21:37:11.629Z,24.02
2022-11-04T21:39:42.675Z,23.42
2022-11-04T21:42:12.558Z,23.25
2022-11-04T21:44:44.958Z,23.65
2022-11-04T21:47:14.830Z,24.35
2022-11-04T21:49:44.636Z,25.42
2022-11-04T21:52:14.586Z,25.13
2022-11-04T21:54:44.390Z,25.85
2022-11-04T21:57:14.251Z,26.08
2022-11-04T21:59:46.657Z,28.35
2022-11-04T22:02:16.917Z,28.92
2022-11-04T22:04:46.901Z,30.25
2022-11-04T22:07:36.754Z,25.38
2022-11-04T22:10:07.924Z,25.58
2022-11-04T22:12:37.783Z,29.25
2022-11-04T22:15:11.953Z,27.95
2022-11-04T22:17:41.881Z,28.25
2022-11-04T22:20:13.395Z,27.77
2022-11-04T22:22:43.226Z,23.88
2022-11-04T22:25:13.075Z,28.58
2022-11-04T22:27:42.891Z,24.23
2022-11-04T22:30:16.560Z,26.92
2022-11-04T22:32:46.700Z,25.65
2022-11-04T22:35:17.023Z,27.80
2022-11-04T22:37:46.873Z,26.30
2022-11-04T22:40:16.831Z,29.42
2022-11-04T22:42:46.677Z,26.23
2022-11-04T22:45:19.313Z,28.13
2022-11-04T22:47:50.238Z,26.23
2022-11-04T22:50:20.283Z,29.65
2022-11-04T22:52:50.207Z,24.85
2022-11-04T22:55:20.026Z,27.25
2022-11-04T22:57:49.882Z,24.33
2022-11-04T23:00:22.563Z,26.77
2022-11-04T23:02:52.678Z,21.88
2022-11-04T23:05:22.832Z,23.60
2022-11-04T23:07:52.658Z,24.77
2022-11-04T23:10:35.338Z,25.65
2022-11-04T23:13:17.690Z,27.10
2022-11-04T23:16:02.691Z,22.85
2022-11-04T23:21:30.025Z,21.83
2022-11-04T23:26:42.024Z,20.42
2022-11-04T23:29:24.392Z,23.73
2022-11-04T23:31:56.797Z,21.45
2022-11-04T23:34:39.144Z,20.73
2022-11-04T23:37:14.852Z,23.05
2022-11-04T23:39:46.825Z,21.58
2022-11-04T23:42:16.789Z,20.00
2022-11-04T23:45:04.902Z,21.65
2022-11-04T23:47:52.151Z,23.27
2022-11-04T23:50:34.822Z,19.50
2022-11-04T23:53:21.190Z,26.33
2022-11-04T23:56:04.526Z,24.88
2022-11-04T23:58:46.868Z,21.05
